Time;durP1;ratioP1;P1;durP2;ratioP2;P2;SDS_P1;SDS_P2;PMS_P1;PMS_P2;Temp;Humidity;BMP_temperature;BMP_pressure;BME280_temperature;BME280_humidity;BME280_pressure;Samples;Min_cycle;Max_cycle;Signal;HPM_P1;HPM_P2
2022/12/25 00:00:12;;;;;;;;;;;;;;;16.56;60.16;101455.47;2063190;28;19937;-61
2022/12/25 00:01:22;;;;;;;;;;;;;;;16.57;59.88;101450.81;2062453;28;19926;-62
2022/12/25 00:02:24;;;;;;;;;;;;;;;16.57;59.82;101461.72;2071559;28;20385;-62
2022/12/25 00:03:27;;;;;;;;;;;;;;;16.56;60.09;101454.66;2071288;28;20450;-62
2022/12/25 00:04:28;;;;;;;;;;;;;;;16.56;60.06;101454.66;2071991;28;19987;-62
2022/12/25 00:05:31;;;;;;;;;;;;;;;16.56;60.11;101460.13;2071286;28;19926;-62
2022/12/25 00:06:33;;;;;;;;;;;;;;;16.55;59.80;101453.91;2070976;28;19933;-62
2022/12/25 00:07:37;;;;;;;;;;;;;;;16.56;60.05;101455.47;2070402;28;19930;-62
2022/12/25 00:08:38;;;;;;;;;;;;;;;16.55;60.15;101453.91;2061110;28;20377;-62
2022/12/25 00:09:41;;;;;;;;;;;;;;;16.56;60.14;101462.84;2060738;28;20289;-62
2022/12/25 00:10:43;;;;;;;;;;;;;;;16.55;59.93;101459.34;2071927;28;19988;-62
2022/12/25 00:11:47;;;;;;;;;;;;;;;16.55;60.22;101459.34;2071619;28;20391;-61
2022/12/25 00:12:48;;;;;;;;;;;;;;;16.56;60.02;101457.41;2068448;28;19937;-62
2022/12/25 00:13:51;;;;;;;;;;;;;;;16.56;59.92;101451.94;2070914;28;19925;-61
2022/12/25 00:14:52;;;;;;;;;;;;;;;16.56;60.21;101451.94;2071032;28;19933;-61
2022/12/25 00:15:55;;;;;;;;;;;;;;;16.55;59.93;101455.84;2070207;28;19937;-62
2022/12/25 00:16:57;;;;;;;;;;;;;;;16.55;59.97;101448.47;2068891;28;19929;-61
2022/12/25 00:18:00;;;;;;;;;;;;;;;16.55;60.11;101444.94;2068839;28;19959;-61
2022/12/25 00:19:01;;;;;;;;;;;;;;;16.56;59.88;101443.75;2071394;28;19929;-61
2022/12/25 00:20:04;;;;;;;;;;;;;;;16.54;59.88;101430.50;2057759;28;19933;-62
2022/12/25 00:21:06;;;;;;;;;;;;;;;16.55;60.08;101442.22;2056224;28;19936;-61
2022/12/25 00:22:09;;;;;;;;;;;;;;;16.55;59.94;101436.75;2069985;28;19929;-61
2022/12/25 00:23:15;;;;;;;;;;;;;;;16.55;59.77;101436.75;2069418;28;19937;-62
2022/12/25 00:24:17;;;;;;;;;;;;;;;16.55;59.91;101436.75;2071768;28;19933;-61
2022/12/25 00:25:19;;;;;;;;;;;;;;;16.55;60.04;101431.31;2071048;28;20480;-61
2022/12/25 00:26:21;;;;;;;;;;;;;;;16.54;60.11;101435.97;2069102;28;20379;-61
2022/12/25 00:27:23;;;;;;;;;;;;;;;16.55;59.92;101436.75;2071939;28;19940;-61
2022/12/25 00:28:26;;;;;;;;;;;;;;;16.53;60.06;101437.13;2069956;28;19971;-62
2022/12/25 00:29:27;;;;;;;;;;;;;;;16.54;60.17;101441.41;2071986;28;19929;-61
2022/12/25 00:30:30;;;;;;;;;;;;;;;16.53;59.77;101439.84;2070833;28;19930;-61
2022/12/25 00:31:33;;;;;;;;;;;;;;;16.54;59.97;101446.09;2070879;28;19930;-61
2022/12/25 00:32:36;;;;;;;;;;;;;;;16.54;60.02;101443.38;2069764;28;19940;-62
2022/12/25 00:33:38;;;;;;;;;;;;;;;16.54;59.99;101446.09;2055421;28;20375;-62
2022/12/25 00:34:41;;;;;;;;;;;;;;;16.54;60.01;101448.81;2051724;28;19930;-61
2022/12/25 00:35:43;;;;;;;;;;;;;;;16.53;60.12;101439.06;2062538;28;20012;-61
2022/12/25 00:36:45;;;;;;;;;;;;;;;16.53;60.15;101444.50;2071141;28;19960;-61
2022/12/25 00:37:47;;;;;;;;;;;;;;;16.54;60.02;101446.84;2071664;28;19940;-62
2022/12/25 00:38:51;;;;;;;;;;;;;;;16.54;60.17;101443.38;2071751;28;19929;-62
2022/12/25 00:39:52;;;;;;;;;;;;;;;16.53;60.04;101442.56;2072030;28;19934;-61
2022/12/25 00:40:55;;;;;;;;;;;;;;;16.53;59.94;101445.31;2069182;28;19930;-62
2022/12/25 00:43:18;;;;;;;;;;;;;;;16.53;60.06;101442.56;2070218;28;20045;-61
2022/12/25 00:44:19;;;;;;;;;;;;;;;16.53;59.96;101433.59;2070527;28;20005;-60
2022/12/25 00:45:22;;;;;;;;;;;;;;;16.53;59.74;101439.06;2071485;28;19929;-61
2022/12/25 00:46:23;;;;;;;;;;;;;;;16.53;60.04;101439.06;2070655;28;20012;-61
2022/12/25 00:47:26;;;;;;;;;;;;;;;16.53;60.09;101439.84;2070055;28;20400;-60
2022/12/25 00:48:29;;;;;;;;;;;;;;;16.53;60.05;101437.13;2069708;28;20377;-61
2022/12/25 00:49:31;;;;;;;;;;;;;;;16.53;59.88;101439.06;2070665;28;19936;-62
2022/12/25 00:50:33;;;;;;;;;;;;;;;16.53;60.13;101436.31;2070384;28;19948;-62
2022/12/25 00:51:35;;;;;;;;;;;;;;;16.52;59.78;101437.50;2071361;28;19929;-61
2022/12/25 00:52:37;;;;;;;;;;;;;;;16.52;59.88;101434.75;2070904;28;19929;-61
2022/12/25 00:53:39;;;;;;;;;;;;;;;16.52;59.96;101437.50;2071661;28;19936;-61
2022/12/25 00:54:42;;;;;;;;;;;;;;;16.52;59.68;101432.03;2070949;28;19979;-61
2022/12/25 00:55:50;;;;;;;;;;;;;;;16.52;59.77;101438.28;2070791;28;19929;-61
2022/12/25 00:56:51;;;;;;;;;;;;;;;16.51;59.78;101436.69;2060655;28;19929;-61
2022/12/25 00:57:54;;;;;;;;;;;;;;;16.52;60.14;101437.50;2059874;28;19937;-61
2022/12/25 00:58:55;;;;;;;;;;;;;;;16.52;59.73;101442.94;2070971;28;19930;-62
2022/12/25 00:59:58;;;;;;;;;;;;;;;16.52;60.26;101442.94;2071653;28;19936;-61
2022/12/25 01:01:01;;;;;;;;;;;;;;;16.52;60.04;101440.22;2071152;28;20408;-61
2022/12/25 01:03:20;;;;;;;;;;;;;;;16.51;59.84;101442.13;2068694;28;20023;-61
2022/12/25 01:04:22;;;;;;;;;;;;;;;16.51;60.02;101439.41;2068907;28;19929;-61
2022/12/25 01:05:25;;;;;;;;;;;;;;;16.51;60.12;101436.69;2070054;28;20020;-61
2022/12/25 01:06:26;;;;;;;;;;;;;;;16.51;59.66;101435.94;2071121;28;19929;-60
2022/12/25 01:07:29;;;;;;;;;;;;;;;16.51;59.75;101431.25;2062312;28;20389;-61
2022/12/25 01:08:32;;;;;;;;;;;;;;;16.50;59.98;101426.94;2062740;28;20076;-61
2022/12/25 01:10:57;;;;;;;;;;;;;;;16.50;60.17;101432.41;2069581;28;19933;-61
2022/12/25 01:11:59;;;;;;;;;;;;;;;16.51;60.01;101430.47;2070588;28;19930;-61
2022/12/25 01:13:01;;;;;;;;;;;;;;;16.50;60.09;101446.03;2070944;28;19936;-61
2022/12/25 01:14:03;;;;;;;;;;;;;;;16.51;59.81;101452.28;2071023;28;20144;-61
2022/12/25 01:15:07;;;;;;;;;;;;;;;16.50;60.00;101445.22;2070963;28;19929;-61
2022/12/25 01:16:09;;;;;;;;;;;;;;;16.51;60.07;101457.72;2070631;28;19929;-61
2022/12/25 01:17:12;;;;;;;;;;;;;;;16.49;59.76;101455.34;2070488;28;19960;-62
2022/12/25 01:18:14;;;;;;;;;;;;;;;16.50;60.02;101451.47;2070945;28;19984;-61
2022/12/25 01:19:16;;;;;;;;;;;;;;;16.50;59.85;101450.69;2069788;28;19930;-61
2022/12/25 01:20:18;;;;;;;;;;;;;;;16.50;59.75;101458.88;2068840;28;20365;-62
2022/12/25 01:21:21;;;;;;;;;;;;;;;16.50;59.99;101458.88;2070946;28;20447;-61
2022/12/25 01:22:24;;;;;;;;;;;;;;;16.50;60.01;101458.88;2070375;28;19925;-61
2022/12/25 01:23:26;;;;;;;;;;;;;;;16.49;59.82;101460.03;2070538;28;19936;-61
2022/12/25 01:24:28;;;;;;;;;;;;;;;16.49;59.99;101452.63;2069691;28;19925;-61
2022/12/25 01:25:30;;;;;;;;;;;;;;;16.50;59.83;101458.88;2069491;28;19937;-61
2022/12/25 01:26:33;;;;;;;;;;;;;;;16.48;60.02;101459.22;2069664;28;20020;-62
2022/12/25 01:27:36;;;;;;;;;;;;;;;16.49;60.08;101454.56;2071587;28;20388;-61
2022/12/25 01:28:38;;;;;;;;;;;;;;;16.49;59.83;101460.78;2071571;28;19948;-61
2022/12/25 01:29:40;;;;;;;;;;;;;;;16.49;60.00;101465.47;2070757;28;19929;-61
2022/12/25 01:30:46;;;;;;;;;;;;;;;16.48;59.77;101472.84;2070550;28;20338;-61
2022/12/25 01:31:49;;;;;;;;;;;;;;;16.49;60.02;101465.47;2068179;28;19930;-61
2022/12/25 01:32:50;;;;;;;;;;;;;;;16.49;59.78;101479.09;2066977;28;20407;-61
2022/12/25 01:33:53;;;;;;;;;;;;;;;16.49;59.89;101487.28;2069689;28;19937;-61
2022/12/25 01:34:55;;;;;;;;;;;;;;;16.48;60.02;101477.50;2068474;28;19934;-61
2022/12/25 01:35:58;;;;;;;;;;;;;;;16.48;60.00;101486.50;2066678;28;20471;-61
2022/12/25 01:37:00;;;;;;;;;;;;;;;16.49;59.81;101485.31;2068919;28;19937;-61
2022/12/25 01:38:02;;;;;;;;;;;;;;;16.48;60.11;101480.25;2071320;28;19929;-61
2022/12/25 01:39:04;;;;;;;;;;;;;;;16.48;59.69;101480.25;2069736;28;19989;-62
2022/12/25 01:40:07;;;;;;;;;;;;;;;16.49;59.88;101476.38;2068974;28;20053;-61
2022/12/25 01:41:10;;;;;;;;;;;;;;;16.48;60.14;101477.50;2066959;28;20418;-61
2022/12/25 01:42:17;;;;;;;;;;;;;;;16.48;59.80;101474.78;2071384;28;19936;-61
2022/12/25 01:43:21;;;;;;;;;;;;;;;16.48;60.09;101477.50;2071260;28;19929;-61
2022/12/25 01:44:43;;;;;;;;;;;;;;;16.47;59.89;101468.56;2068497;28;19933;-61
2022/12/25 01:45:47;;;;;;;;;;;;;;;16.47;59.96;101467.78;2070686;28;19940;-61
2022/12/25 01:46:48;;;;;;;;;;;;;;;16.47;59.73;101467.78;2069803;28;20368;-61
2022/12/25 01:47:51;;;;;;;;;;;;;;;16.47;59.95;101473.22;2069227;28;19930;-61
2022/12/25 01:48:55;;;;;;;;;;;;;;;16.47;59.95;101459.59;2061706;28;19926;-61
2022/12/25 01:49:58;;;;;;;;;;;;;;;16.46;59.79;101466.97;2063856;28;19934;-61
2022/12/25 01:51:00;;;;;;;;;;;;;;;16.46;60.06;101471.66;2068787;28;19964;-61
2022/12/25 01:52:05;;;;;;;;;;;;;;;16.47;59.97;101473.22;2068249;28;19992;-61
2022/12/25 01:53:07;;;;;;;;;;;;;;;16.46;59.90;101477.13;2071035;28;19929;-61
2022/12/25 01:54:13;;;;;;;;;;;;;;;16.46;59.81;101475.16;2069781;28;19930;-61
2022/12/25 01:55:14;;;;;;;;;;;;;;;16.46;60.08;101471.66;2069294;28;19967;-62
2022/12/25 01:56:17;;;;;;;;;;;;;;;16.46;60.12;101474.38;2069764;28;19933;-62
2022/12/25 01:57:22;;;;;;;;;;;;;;;16.46;59.84;101469.69;2067480;28;20391;-60
2022/12/25 01:58:25;;;;;;;;;;;;;;;16.46;59.80;101474.38;2069080;28;19936;-61
2022/12/25 01:59:28;;;;;;;;;;;;;;;16.46;59.80;101471.66;2070916;28;19930;-61
2022/12/25 02:00:31;;;;;;;;;;;;;;;16.46;59.88;101466.22;2069631;28;19934;-61
2022/12/25 02:01:32;;;;;;;;;;;;;;;16.46;60.14;101468.94;2070633;28;19929;-61
2022/12/25 02:02:36;;;;;;;;;;;;;;;16.44;59.86;101467.34;2069748;28;19973;-61
2022/12/25 02:03:41;;;;;;;;;;;;;;;16.44;59.96;101464.63;2070409;28;20295;-61
2022/12/25 02:04:47;;;;;;;;;;;;;;;16.45;59.93;101470.88;2071233;28;19926;-61
2022/12/25 02:05:50;;;;;;;;;;;;;;;16.44;59.99;101478.25;2070940;28;19930;-61
2022/12/25 02:06:52;;;;;;;;;;;;;;;16.44;60.08;101475.53;2068472;28;20284;-61
2022/12/25 02:07:55;;;;;;;;;;;;;;;16.44;59.97;101478.25;2068829;28;19929;-61
2022/12/25 02:08:57;;;;;;;;;;;;;;;16.45;59.78;101470.88;2070883;28;19929;-61
2022/12/25 02:09:59;;;;;;;;;;;;;;;16.44;60.14;101464.63;2071040;28;19929;-61
2022/12/25 02:11:01;;;;;;;;;;;;;;;16.43;59.91;101473.13;2071511;28;19937;-61
2022/12/25 02:12:05;;;;;;;;;;;;;;;16.44;60.08;101469.28;2069755;28;19929;-61
2022/12/25 02:13:08;;;;;;;;;;;;;;;16.44;59.89;101467.34;2069523;28;19930;-61
2022/12/25 02:14:11;;;;;;;;;;;;;;;16.45;59.99;101470.88;2076780;28;20654;-61
2022/12/25 02:15:15;;;;;;;;;;;;;;;16.43;59.95;101463.03;2078422;28;19925;-61
2022/12/25 02:16:19;;;;;;;;;;;;;;;16.43;59.90;101462.22;2071434;28;19937;-62
2022/12/25 02:17:23;;;;;;;;;;;;;;;16.43;59.74;101463.03;2070758;28;19999;-62
2022/12/25 02:18:33;;;;;;;;;;;;;;;16.44;60.01;101469.28;2070531;28;19991;-62
2022/12/25 02:19:38;;;;;;;;;;;;;;;16.43;60.07;101457.56;2069855;28;19957;-61
2022/12/25 02:20:59;;;;;;;;;;;;;;;16.44;59.79;101455.66;2070297;28;19933;-62
2022/12/25 02:22:07;;;;;;;;;;;;;;;16.43;59.89;101460.31;2054319;28;19929;-62
2022/12/25 02:23:23;;;;;;;;;;;;;;;16.43;60.03;101463.03;2062045;28;20292;-62
2022/12/25 02:24:34;;;;;;;;;;;;;;;16.43;59.85;101462.22;2063491;28;19934;-62
2022/12/25 02:25:43;;;;;;;;;;;;;;;16.43;60.06;101456.78;2071348;28;19929;-61
2022/12/25 02:26:54;;;;;;;;;;;;;;;16.43;59.97;101454.06;2070353;28;20034;-61
2022/12/25 02:28:04;;;;;;;;;;;;;;;16.42;59.68;101447.84;2071627;28;19933;-61
2022/12/25 02:29:08;;;;;;;;;;;;;;;16.43;59.97;101452.13;2067392;28;19944;-61
2022/12/25 02:30:11;;;;;;;;;;;;;;;16.43;59.76;101456.78;2068796;28;19930;-61
2022/12/25 02:31:16;;;;;;;;;;;;;;;16.42;59.85;101450.56;2070006;28;19930;-61
2022/12/25 02:32:23;;;;;;;;;;;;;;;16.42;59.87;101450.56;2068445;28;19929;-61
2022/12/25 02:34:50;;;;;;;;;;;;;;;16.41;59.82;101454.41;2071514;28;19929;-61
2022/12/25 02:35:55;;;;;;;;;;;;;;;16.42;59.75;101450.56;2069717;28;19929;-61
2022/12/25 02:37:00;;;;;;;;;;;;;;;16.41;59.78;101448.97;2069980;28;19936;-61
2022/12/25 02:38:06;;;;;;;;;;;;;;;16.40;60.07;101447.41;2061966;28;20324;-62
2022/12/25 02:40:33;;;;;;;;;;;;;;;16.41;59.97;101448.19;2068820;28;19925;-61
2022/12/25 02:41:38;;;;;;;;;;;;;;;16.40;59.91;101444.69;2069897;28;19933;-61
2022/12/25 03:07:22;;;;;;;;;;;;;;;16.39;59.88;101439.59;2070492;28;20419;-62
2022/12/25 03:08:25;;;;;;;;;;;;;;;16.38;59.82;101430.63;2069560;28;19929;-62
2022/12/25 03:12:18;;;;;;;;;;;;;;;16.38;59.80;101421.66;2072030;28;19929;-62
2022/12/25 03:13:22;;;;;;;;;;;;;;;16.38;59.96;101418.91;2072244;28;19934;-61
2022/12/25 03:17:09;;;;;;;;;;;;;;;16.37;59.77;101415.44;2056770;28;20050;-61
2022/12/25 03:18:16;;;;;;;;;;;;;;;16.38;60.00;101408.03;2060632;28;20026;-61
2022/12/25 03:27:30;;;;;;;;;;;;;;;16.37;59.79;101398.28;2071428;28;20354;-61
2022/12/25 03:28:32;;;;;;;;;;;;;;;16.36;59.53;101397.47;2072881;28;19933;-61
2022/12/25 03:31:13;;;;;;;;;;;;;;;16.36;59.75;101397.47;2070115;28;20058;-60
2022/12/25 03:32:21;;;;;;;;;;;;;;;16.36;59.86;101386.59;2071185;28;20008;-61
2022/12/25 03:33:27;;;;;;;;;;;;;;;16.37;60.05;101390.91;2071120;28;19929;-61
2022/12/25 03:36:16;;;;;;;;;;;;;;;16.36;59.73;101386.59;2072892;28;20016;-61
2022/12/25 04:36:46;;;;;;;;;;;;;;;16.32;59.87;101361.22;2036391;29;19931;-62
2022/12/25 04:37:48;;;;;;;;;;;;;;;16.32;59.84;101360.44;2037610;29;19956;-62
2022/12/25 04:38:51;;;;;;;;;;;;;;;16.32;59.80;101365.88;2038462;29;20360;-62
2022/12/25 04:39:52;;;;;;;;;;;;;;;16.31;59.91;101358.88;2037858;29;20331;-62
2022/12/25 04:40:55;;;;;;;;;;;;;;;16.32;59.63;101363.16;2037909;29;19931;-62
2022/12/25 04:41:58;;;;;;;;;;;;;;;16.31;59.89;101367.84;2038595;29;20052;-62
2022/12/25 04:43:00;;;;;;;;;;;;;;;16.32;59.92;101374.06;2061415;28;20403;-62
2022/12/25 04:44:02;;;;;;;;;;;;;;;16.32;59.98;101374.06;2062283;28;20392;-62
2022/12/25 04:45:05;;;;;;;;;;;;;;;16.31;59.81;101367.84;2062052;28;20300;-62
2022/12/25 04:46:07;;;;;;;;;;;;;;;16.31;59.71;101367.84;2061664;28;20398;-62
2022/12/25 04:47:10;;;;;;;;;;;;;;;16.32;59.67;101374.84;2061342;28;19930;-62
2022/12/25 04:48:12;;;;;;;;;;;;;;;16.31;59.66;101367.84;2063417;28;19936;-62
2022/12/25 04:49:16;;;;;;;;;;;;;;;16.31;59.91;101361.59;2061220;28;19933;-62
2022/12/25 04:50:18;;;;;;;;;;;;;;;16.31;59.81;101359.66;2061886;28;19929;-62
2022/12/25 04:51:22;;;;;;;;;;;;;;;16.31;59.63;101372.50;2063650;28;19929;-62
2022/12/25 04:52:24;;;;;;;;;;;;;;;16.31;59.69;101362.41;2069570;28;19976;-62
2022/12/25 04:53:26;;;;;;;;;;;;;;;16.31;59.72;101365.13;2070808;28;19925;-62
2022/12/25 04:54:28;;;;;;;;;;;;;;;16.31;59.80;101362.41;2071277;28;20015;-62
2022/12/25 04:55:31;;;;;;;;;;;;;;;16.31;59.65;101356.16;2070434;28;20035;-62
2022/12/25 04:56:32;;;;;;;;;;;;;;;16.31;59.72;101367.84;2071011;28;20063;-62
2022/12/25 04:57:36;;;;;;;;;;;;;;;16.31;60.00;101369.78;2071405;28;19930;-62
2022/12/25 04:58:37;;;;;;;;;;;;;;;16.31;59.83;101376.03;2069634;28;19937;-62
2022/12/25 04:59:40;;;;;;;;;;;;;;;16.31;59.86;101377.94;2079031;28;20028;-62
2022/12/25 05:00:42;;;;;;;;;;;;;;;16.31;59.81;101367.84;2078812;28;19990;-62
2022/12/25 05:01:44;;;;;;;;;;;;;;;16.31;59.93;101375.22;2071180;28;19968;-62
2022/12/25 05:02:46;;;;;;;;;;;;;;;16.30;59.97;101371.69;2072241;28;19925;-62
2022/12/25 05:03:49;;;;;;;;;;;;;;;16.30;59.72;101379.88;2069690;28;19929;-62
2022/12/25 05:04:52;;;;;;;;;;;;;;;16.30;59.75;101377.16;2069811;28;20020;-62
2022/12/25 05:05:55;;;;;;;;;;;;;;;16.30;59.96;101379.88;2071421;28;19929;-62
2022/12/25 05:06:56;;;;;;;;;;;;;;;16.31;59.75;101383.41;2072063;28;20020;-62
2022/12/25 05:07:59;;;;;;;;;;;;;;;16.29;59.65;101378.31;2062660;28;19937;-62
2022/12/25 05:09:01;;;;;;;;;;;;;;;16.29;59.81;101375.59;2064189;28;19934;-62
2022/12/25 05:10:04;;;;;;;;;;;;;;;16.30;59.73;101374.44;2070658;28;20032;-62
2022/12/25 05:11:06;;;;;;;;;;;;;;;16.30;59.93;101382.59;2070946;28;19930;-62
2022/12/25 05:12:09;;;;;;;;;;;;;;;16.30;59.90;101376.34;2072027;28;19960;-62
2022/12/25 05:13:14;;;;;;;;;;;;;;;16.30;59.75;101376.34;2068932;28;20319;-62
2022/12/25 05:14:16;;;;;;;;;;;;;;;16.29;59.88;101375.59;2067370;28;19929;-62
2022/12/25 05:15:18;;;;;;;;;;;;;;;16.29;59.92;101381.03;2071026;28;20710;-62
2022/12/25 05:16:21;;;;;;;;;;;;;;;16.30;59.76;101376.34;2070974;28;19933;-62
2022/12/25 05:17:22;;;;;;;;;;;;;;;16.30;59.67;101376.34;2072187;28;19929;-62
2022/12/25 05:18:25;;;;;;;;;;;;;;;16.29;59.86;101372.88;2070821;28;19976;-62
2022/12/25 05:19:27;;;;;;;;;;;;;;;16.29;59.80;101364.69;2069666;28;19937;-62
2022/12/25 05:20:31;;;;;;;;;;;;;;;16.30;59.64;101370.91;2071390;28;19972;-62
2022/12/25 05:21:40;;;;;;;;;;;;;;;16.29;59.84;101370.16;2069962;28;19937;-62
2022/12/25 05:22:42;;;;;;;;;;;;;;;16.29;59.66;101364.69;2071797;28;20016;-62
2022/12/25 05:23:47;;;;;;;;;;;;;;;16.29;59.80;101375.59;2069074;28;19976;-62
2022/12/25 05:24:50;;;;;;;;;;;;;;;16.30;59.65;101365.47;2062163;28;19930;-62
2022/12/25 05:25:51;;;;;;;;;;;;;;;16.28;60.07;101365.81;2060920;28;20011;-62
2022/12/25 05:26:54;;;;;;;;;;;;;;;16.29;59.75;101363.91;2070730;28;20549;-62
2022/12/25 05:27:56;;;;;;;;;;;;;;;16.29;59.74;101358.44;2071283;28;20449;-62
2022/12/25 05:28:58;;;;;;;;;;;;;;;16.28;59.64;101365.81;2069346;28;19959;-62
2022/12/25 05:30:00;;;;;;;;;;;;;;;16.30;59.61;101365.47;2069357;28;19933;-62
2022/12/25 05:31:03;;;;;;;;;;;;;;;16.29;59.86;101367.41;2069666;28;19930;-62
2022/12/25 05:32:05;;;;;;;;;;;;;;;16.28;59.65;101363.09;2070882;28;19933;-62
2022/12/25 05:33:07;;;;;;;;;;;;;;;16.29;59.96;101372.06;2071062;28;20714;-62
2022/12/25 05:34:09;;;;;;;;;;;;;;;16.29;59.65;101369.34;2070617;28;19934;-61
2022/12/25 05:35:11;;;;;;;;;;;;;;;16.28;59.99;101363.09;2070406;28;19934;-61
2022/12/25 05:36:15;;;;;;;;;;;;;;;16.29;59.64;101359.25;2070009;28;19994;-61
2022/12/25 05:37:17;;;;;;;;;;;;;;;16.28;59.65;101368.56;2071169;28;20019;-62
2022/12/25 05:38:19;;;;;;;;;;;;;;;16.28;59.91;101365.81;2069101;28;20362;-61
2022/12/25 05:39:21;;;;;;;;;;;;;;;16.29;59.86;101367.41;2070792;28;20384;-62
2022/12/25 05:40:23;;;;;;;;;;;;;;;16.29;59.68;101366.63;2070592;28;20408;-61
2022/12/25 05:41:26;;;;;;;;;;;;;;;16.29;59.71;101372.88;2070617;28;20383;-61
2022/12/25 05:42:34;;;;;;;;;;;;;;;16.28;59.88;101371.28;2069736;28;20081;-62
2022/12/25 05:43:37;;;;;;;;;;;;;;;16.29;59.88;101372.06;2069668;28;19957;-61
2022/12/25 05:44:38;;;;;;;;;;;;;;;16.28;59.84;101363.09;2069332;28;19929;-62
2022/12/25 05:45:41;;;;;;;;;;;;;;;16.28;59.58;101368.56;2069383;28;20030;-62
2022/12/25 05:46:42;;;;;;;;;;;;;;;16.28;59.85;101367.78;2071176;28;19929;-62
2022/12/25 05:47:45;;;;;;;;;;;;;;;16.28;59.61;101365.81;2068962;28;19969;-61
2022/12/25 05:48:47;;;;;;;;;;;;;;;16.28;59.92;101365.81;2071116;28;20020;-62
2022/12/25 05:49:50;;;;;;;;;;;;;;;16.28;59.64;101365.81;2070925;28;20024;-60
2022/12/25 05:50:51;;;;;;;;;;;;;;;16.28;59.94;101367.78;2070660;28;19933;-61
2022/12/25 05:51:55;;;;;;;;;;;;;;;16.28;60.05;101362.34;2071557;28;19929;-62
2022/12/25 05:52:57;;;;;;;;;;;;;;;16.28;59.87;101365.81;2071382;28;20289;-62
2022/12/25 05:54:05;;;;;;;;;;;;;;;16.27;59.93;101364.25;2070813;28;19926;-61
2022/12/25 05:55:07;;;;;;;;;;;;;;;16.27;59.97;101361.53;2068695;28;19930;-62
2022/12/25 05:56:10;;;;;;;;;;;;;;;16.28;59.67;101370.50;2070472;28;19926;-61
2022/12/25 05:57:12;;;;;;;;;;;;;;;16.28;59.68;101373.22;2071216;28;19929;-62
2022/12/25 05:58:14;;;;;;;;;;;;;;;16.28;59.93;101368.56;2071140;28;20020;-62
2022/12/25 05:59:16;;;;;;;;;;;;;;;16.28;59.89;101362.34;2062297;28;19926;-61
2022/12/25 06:00:19;;;;;;;;;;;;;;;16.28;59.95;101363.09;2062440;28;20419;-62
2022/12/25 06:01:22;;;;;;;;;;;;;;;16.28;59.75;101363.09;2070991;28;19937;-62
2022/12/25 06:02:25;;;;;;;;;;;;;;;16.27;59.79;101363.47;2071265;28;20392;-62
2022/12/25 06:03:27;;;;;;;;;;;;;;;16.27;59.88;101363.47;2068776;28;19929;-62
2022/12/25 06:04:30;;;;;;;;;;;;;;;16.27;59.72;101364.25;2070479;28;20369;-61
2022/12/25 06:05:31;;;;;;;;;;;;;;;16.28;59.69;101370.50;2070442;28;19929;-62
2022/12/25 06:06:34;;;;;;;;;;;;;;;16.28;59.71;101365.06;2070760;28;20415;-61
2022/12/25 06:07:37;;;;;;;;;;;;;;;16.28;59.87;101357.66;2070974;28;19925;-62
2022/12/25 06:08:39;;;;;;;;;;;;;;;16.27;59.62;101361.53;2068905;28;19944;-61
2022/12/25 06:09:41;;;;;;;;;;;;;;;16.27;59.61;101361.53;2069056;28;19930;-62
2022/12/25 06:10:44;;;;;;;;;;;;;;;16.27;59.63;101358.81;2071190;28;19933;-62
2022/12/25 06:11:45;;;;;;;;;;;;;;;16.27;59.75;101363.47;2070995;28;19925;-62
2022/12/25 06:12:48;;;;;;;;;;;;;;;16.26;59.90;101354.53;2071435;28;19929;-61
2022/12/25 06:13:50;;;;;;;;;;;;;;;16.25;59.81;101358.38;2070109;28;20403;-62
2022/12/25 06:14:53;;;;;;;;;;;;;;;16.27;59.57;101356.09;2069824;28;20399;-62
2022/12/25 06:15:58;;;;;;;;;;;;;;;16.27;59.75;101356.09;2069126;28;19929;-62
2022/12/25 06:17:00;;;;;;;;;;;;;;;16.27;59.89;101349.84;2068786;28;19933;-62
2022/12/25 06:18:02;;;;;;;;;;;;;;;16.26;59.60;101365.44;2069286;28;19929;-61
2022/12/25 06:19:05;;;;;;;;;;;;;;;16.27;59.89;101368.91;2061362;28;19929;-62
2022/12/25 06:20:07;;;;;;;;;;;;;;;16.26;59.86;101354.53;2061442;28;19934;-61
2022/12/25 06:21:12;;;;;;;;;;;;;;;16.27;59.86;101360.75;2067750;28;19929;-62
2022/12/25 06:22:13;;;;;;;;;;;;;;;16.27;59.77;101344.41;2070116;28;19929;-61
2022/12/25 06:23:17;;;;;;;;;;;;;;;16.27;59.62;101349.84;2069349;28;20335;-62
2022/12/25 06:24:19;;;;;;;;;;;;;;;16.26;59.92;101357.25;2069371;28;20345;-62
2022/12/25 06:25:23;;;;;;;;;;;;;;;16.27;59.83;101352.56;2071825;28;19929;-62
2022/12/25 06:26:24;;;;;;;;;;;;;;;16.26;59.63;101354.53;2072425;28;19937;-62
2022/12/25 06:27:28;;;;;;;;;;;;;;;16.27;59.53;101342.47;2071634;28;20015;-62
2022/12/25 06:28:29;;;;;;;;;;;;;;;16.27;59.67;101347.13;2071964;28;19933;-62
2022/12/25 06:29:32;;;;;;;;;;;;;;;16.25;59.76;101339.31;2071641;28;20729;-62
2022/12/25 06:30:34;;;;;;;;;;;;;;;16.26;59.67;101338.19;2071260;28;19937;-62
2022/12/25 06:31:37;;;;;;;;;;;;;;;16.25;59.63;101336.59;2072245;28;19925;-61
2022/12/25 06:32:38;;;;;;;;;;;;;;;16.25;59.68;101328.41;2071606;28;19929;-62
2022/12/25 06:33:41;;;;;;;;;;;;;;;16.26;59.75;101338.19;2072475;28;19936;-62
2022/12/25 06:34:43;;;;;;;;;;;;;;;16.26;59.58;101331.94;2072180;28;20339;-62
2022/12/25 06:35:49;;;;;;;;;;;;;;;16.26;59.53;101331.94;2072301;28;19936;-62
2022/12/25 06:36:50;;;;;;;;;;;;;;;16.25;59.92;101331.13;2072350;28;19979;-62
2022/12/25 06:37:53;;;;;;;;;;;;;;;16.26;59.70;101331.94;2072807;28;19934;-61
2022/12/25 06:38:58;;;;;;;;;;;;;;;16.26;59.66;101337.38;2072517;28;20616;-62
2022/12/25 06:40:01;;;;;;;;;;;;;;;16.25;59.79;101339.31;2070323;28;19930;-62
2022/12/25 06:41:04;;;;;;;;;;;;;;;16.25;59.85;101336.59;2070790;28;19937;-62
2022/12/25 06:42:06;;;;;;;;;;;;;;;16.26;59.64;101349.06;2072237;28;19937;-61
2022/12/25 06:43:08;;;;;;;;;;;;;;;16.25;59.89;101336.59;2073084;28;19929;-62
2022/12/25 06:44:11;;;;;;;;;;;;;;;16.25;59.77;101336.59;2071935;28;20308;-62
2022/12/25 06:45:12;;;;;;;;;;;;;;;16.24;59.69;101337.75;2070158;28;20782;-62
2022/12/25 06:46:15;;;;;;;;;;;;;;;16.25;59.76;101338.53;2070596;28;19960;-62
2022/12/25 06:47:17;;;;;;;;;;;;;;;16.24;59.84;101329.56;2072780;28;19976;-62
2022/12/25 06:48:20;;;;;;;;;;;;;;;16.24;59.87;101329.56;2070280;28;19925;-61
2022/12/25 06:49:21;;;;;;;;;;;;;;;16.24;59.69;101332.31;2070467;28;20016;-61
2022/12/25 06:50:24;;;;;;;;;;;;;;;16.25;59.56;101335.81;2072419;28;19929;-61
2022/12/25 06:51:27;;;;;;;;;;;;;;;16.25;59.72;101339.31;2071584;28;19930;-61
2022/12/25 06:52:31;;;;;;;;;;;;;;;16.24;59.87;101329.56;2072799;28;19979;-61
2022/12/25 06:53:33;;;;;;;;;;;;;;;16.24;59.65;101332.31;2070714;28;19979;-61
2022/12/25 06:54:43;;;;;;;;;;;;;;;16.25;59.78;101333.09;2071370;28;19930;-62
2022/12/25 06:55:45;;;;;;;;;;;;;;;16.25;59.55;101327.66;2070585;28;19930;-61
2022/12/25 06:56:48;;;;;;;;;;;;;;;16.25;59.51;101333.88;2072132;28;20028;-61
2022/12/25 06:57:50;;;;;;;;;;;;;;;16.25;59.49;101333.09;2073148;28;19936;-61
2022/12/25 06:58:53;;;;;;;;;;;;;;;16.24;59.66;101324.13;2063059;28;19999;-61
2022/12/25 06:59:55;;;;;;;;;;;;;;;16.23;59.57;101336.19;2063522;28;19930;-61
2022/12/25 07:00:58;;;;;;;;;;;;;;;16.24;59.57;101326.84;2071074;28;19930;-61
2022/12/25 07:02:01;;;;;;;;;;;;;;;16.24;59.91;101326.84;2072133;28;19926;-61
2022/12/25 07:03:03;;;;;;;;;;;;;;;16.23;59.63;101325.28;2072778;28;20413;-61
2022/12/25 07:04:07;;;;;;;;;;;;;;;16.23;59.75;101328.00;2070019;28;20482;-61
2022/12/25 07:05:09;;;;;;;;;;;;;;;16.24;59.86;101329.56;2072416;28;19933;-61
2022/12/25 07:06:11;;;;;;;;;;;;;;;16.24;59.83;101331.50;2071865;28;19933;-61
2022/12/25 07:07:14;;;;;;;;;;;;;;;16.23;59.83;101325.28;2072186;28;19933;-61
2022/12/25 07:08:16;;;;;;;;;;;;;;;16.24;59.70;101317.88;2072381;28;19929;-62
2022/12/25 07:09:19;;;;;;;;;;;;;;;16.24;59.82;101324.13;2071533;28;20434;-61
2022/12/25 07:10:21;;;;;;;;;;;;;;;16.24;59.53;101320.59;2070084;28;20012;-62
2022/12/25 07:11:25;;;;;;;;;;;;;;;16.24;59.79;101315.16;2070775;28;20474;-62